createdAt,value
2023-06-17T00:00:48.139Z,22.02
2023-06-17T00:03:15.032Z,21.99
2023-06-17T00:05:42.559Z,21.95
2023-06-17T00:08:09.398Z,21.91
2023-06-17T00:10:36.096Z,21.85
2023-06-17T00:13:03.589Z,21.83
2023-06-17T00:15:34.033Z,21.79
2023-06-17T00:18:01.993Z,21.80
2023-06-17T00:20:30.249Z,21.74
2023-06-17T00:22:57.161Z,21.67
2023-06-17T00:25:24.015Z,21.63
2023-06-17T00:27:50.778Z,21.65
2023-06-17T00:30:17.996Z,21.58
2023-06-17T00:32:45.229Z,21.52
2023-06-17T00:35:12.823Z,21.52
2023-06-17T00:37:39.478Z,21.50
2023-06-17T00:40:10.599Z,21.47
2023-06-17T00:42:37.620Z,21.41
2023-06-17T00:45:04.974Z,21.39
2023-06-17T00:47:31.941Z,21.25
2023-06-17T00:49:59.247Z,21.16
2023-06-17T00:52:41.002Z,21.02
2023-06-17T00:55:10.707Z,20.95
2023-06-17T00:57:39.479Z,20.79
2023-06-17T01:00:11.193Z,20.83
2023-06-17T01:02:41.585Z,20.89
2023-06-17T01:05:13.597Z,20.93
2023-06-17T01:07:59.054Z,20.94
2023-06-17T01:10:35.339Z,20.97
2023-06-17T01:13:04.841Z,21.00
2023-06-17T01:15:37.236Z,20.98
2023-06-17T01:18:06.067Z,20.93
2023-06-17T01:20:33.871Z,20.95
2023-06-17T01:23:02.312Z,20.92
2023-06-17T01:25:33.003Z,20.88
2023-06-17T01:28:11.517Z,20.73
2023-06-17T01:30:38.247Z,20.61
2023-06-17T01:33:05.112Z,20.51
2023-06-17T01:35:33.662Z,20.46
2023-06-17T01:38:08.648Z,20.50
2023-06-17T01:40:36.296Z,20.41
2023-06-17T01:43:05.385Z,20.31
2023-06-17T01:45:33.276Z,20.19
2023-06-17T01:48:00.356Z,20.10
2023-06-17T01:50:27.152Z,20.02
2023-06-17T01:52:53.930Z,19.98
2023-06-17T01:55:20.811Z,19.97
2023-06-17T01:57:47.619Z,19.99
2023-06-17T02:00:14.935Z,20.09
2023-06-17T02:02:51.958Z,20.05
2023-06-17T02:05:20.913Z,20.06
2023-06-17T02:07:48.512Z,20.06
2023-06-17T02:10:15.803Z,20.04
2023-06-17T02:12:42.900Z,19.99
2023-06-17T02:15:10.342Z,19.86
2023-06-17T02:17:37.206Z,19.79
2023-06-17T02:20:07.416Z,19.74
2023-06-17T02:22:34.555Z,19.67
2023-06-17T02:25:01.518Z,19.67
2023-06-17T02:27:28.498Z,19.66
2023-06-17T02:29:57.451Z,19.67
2023-06-17T02:32:24.540Z,19.64
2023-06-17T02:34:51.868Z,19.71
2023-06-17T02:37:18.539Z,19.66
2023-06-17T02:39:45.329Z,19.59
2023-06-17T02:42:12.825Z,19.50
2023-06-17T02:44:39.689Z,19.46
2023-06-17T02:47:07.796Z,19.40
2023-06-17T02:49:34.656Z,19.41
2023-06-17T02:52:01.491Z,19.35
2023-06-17T02:54:28.516Z,19.31
2023-06-17T02:56:56.038Z,19.27
2023-06-17T02:59:23.830Z,19.26
2023-06-17T03:01:52.484Z,19.17
2023-06-17T03:04:21.971Z,19.20
2023-06-17T03:06:52.029Z,19.13
2023-06-17T03:09:19.427Z,19.10
2023-06-17T03:11:47.065Z,19.09
2023-06-17T03:14:13.807Z,19.04
2023-06-17T03:16:41.746Z,19.00
2023-06-17T03:19:09.100Z,18.98
2023-06-17T03:21:41.914Z,19.01
2023-06-17T03:24:09.512Z,18.92
2023-06-17T03:26:36.339Z,18.75
2023-06-17T03:29:04.306Z,18.65
2023-06-17T03:31:31.852Z,18.64
2023-06-17T03:33:58.821Z,18.70
2023-06-17T03:36:29.472Z,18.76
2023-06-17T03:38:57.852Z,18.84
2023-06-17T03:41:27.208Z,18.86
2023-06-17T03:43:53.965Z,18.80
2023-06-17T03:46:21.300Z,18.71
2023-06-17T03:48:48.157Z,18.81
2023-06-17T03:51:14.970Z,18.66
2023-06-17T03:53:41.886Z,18.70
2023-06-17T03:56:08.793Z,18.81
2023-06-17T03:58:35.482Z,18.78
2023-06-17T04:01:02.169Z,18.69
2023-06-17T04:03:29.248Z,18.55
2023-06-17T04:05:56.802Z,18.38
2023-06-17T04:08:24.619Z,18.24
2023-06-17T04:10:53.853Z,18.09
2023-06-17T04:13:20.585Z,18.02
2023-06-17T04:15:47.548Z,18.12
2023-06-17T04:18:14.567Z,18.19
2023-06-17T04:20:41.468Z,18.25
2023-06-17T04:23:08.542Z,18.34
2023-06-17T04:25:38.406Z,18.35
2023-06-17T04:28:13.888Z,18.43
2023-06-17T04:30:41.416Z,18.50
2023-06-17T04:33:12.635Z,18.60
2023-06-17T04:35:43.066Z,18.74
2023-06-17T04:38:11.490Z,18.88
2023-06-17T04:40:39.767Z,18.96
2023-06-17T04:43:09.811Z,19.10
2023-06-17T04:45:37.074Z,19.24
2023-06-17T04:48:06.837Z,19.30
2023-06-17T04:50:34.590Z,19.45
2023-06-17T04:53:07.243Z,19.49
2023-06-17T04:55:37.298Z,19.53
2023-06-17T04:58:06.046Z,19.56
2023-06-17T05:00:40.778Z,19.63
2023-06-17T05:03:08.902Z,19.59
2023-06-17T05:05:36.833Z,19.81
2023-06-17T05:08:04.135Z,19.99
2023-06-17T05:10:31.256Z,20.16
2023-06-17T05:12:58.072Z,20.37
2023-06-17T05:15:27.417Z,20.48
2023-06-17T05:17:54.272Z,20.70
2023-06-17T05:20:21.247Z,20.85
2023-06-17T05:22:48.056Z,20.96
2023-06-17T05:25:15.169Z,20.96
2023-06-17T05:27:41.874Z,21.11
2023-06-17T05:30:09.902Z,21.08
2023-06-17T05:32:38.966Z,21.05
2023-06-17T05:35:06.286Z,21.07
2023-06-17T05:37:34.261Z,21.40
2023-06-17T05:40:03.276Z,21.59
2023-06-17T05:42:30.423Z,21.60
2023-06-17T05:44:57.680Z,21.81
2023-06-17T05:47:25.313Z,22.04
2023-06-17T05:49:52.058Z,22.14
2023-06-17T05:52:18.877Z,22.33
2023-06-17T05:54:45.741Z,22.36
2023-06-17T05:57:12.630Z,22.50
2023-06-17T05:59:39.315Z,22.59
2023-06-17T06:02:06.247Z,22.91
2023-06-17T06:04:32.971Z,23.39
2023-06-17T06:06:59.899Z,23.65
2023-06-17T06:09:26.657Z,23.95
2023-06-17T06:11:53.344Z,24.30
2023-06-17T06:14:20.172Z,24.68
2023-06-17T06:16:48.694Z,24.78
2023-06-17T06:19:15.983Z,25.17
2023-06-17T06:21:43.533Z,25.29
2023-06-17T06:24:10.524Z,25.51
2023-06-17T06:26:38.974Z,25.74
2023-06-17T06:29:08.483Z,25.81
2023-06-17T06:31:35.168Z,26.02
2023-06-17T06:34:02.053Z,26.10
2023-06-17T06:36:28.748Z,26.21
2023-06-17T06:38:55.750Z,26.46
2023-06-17T06:41:22.504Z,26.73
2023-06-17T06:44:04.905Z,27.06
2023-06-17T06:46:32.791Z,27.33
2023-06-17T06:49:00.147Z,27.35
2023-06-17T06:51:27.954Z,27.42
2023-06-17T06:53:54.971Z,27.67
2023-06-17T06:56:21.783Z,27.88
2023-06-17T06:58:48.434Z,28.05
2023-06-17T07:01:15.178Z,27.93
2023-06-17T07:03:42.912Z,28.26
2023-06-17T07:06:10.074Z,28.37
2023-06-17T07:08:37.351Z,28.78
2023-06-17T07:11:04.114Z,29.02
2023-06-17T07:13:30.830Z,29.08
2023-06-17T07:15:57.551Z,29.07
2023-06-17T07:18:24.306Z,29.11
2023-06-17T07:20:51.069Z,29.15
2023-06-17T07:23:18.927Z,29.32
2023-06-17T07:25:45.673Z,29.43
2023-06-17T07:28:14.022Z,29.77
2023-06-17T07:30:41.618Z,30.06
2023-06-17T07:33:08.677Z,30.36
2023-06-17T07:35:35.544Z,30.69
2023-06-17T07:38:02.217Z,30.65
2023-06-17T07:40:30.288Z,30.66
2023-06-17T07:42:56.961Z,30.69
2023-06-17T07:45:23.673Z,31.01
2023-06-17T07:47:50.558Z,30.95
2023-06-17T07:50:17.289Z,31.13
2023-06-17T07:52:44.053Z,31.65
2023-06-17T07:55:11.800Z,31.92
2023-06-17T07:57:38.637Z,31.82
2023-06-17T08:00:14.282Z,31.80
2023-06-17T08:02:44.127Z,31.91
2023-06-17T08:05:11.253Z,32.35
2023-06-17T08:07:38.023Z,32.63
2023-06-17T08:10:07.367Z,32.77
2023-06-17T08:12:36.366Z,32.43
2023-06-17T08:15:03.284Z,32.51
2023-06-17T08:17:30.238Z,32.77
2023-06-17T08:19:57.165Z,32.87
2023-06-17T08:22:24.258Z,32.93
2023-06-17T08:24:50.958Z,32.83
2023-06-17T08:27:17.790Z,33.01
2023-06-17T08:29:44.519Z,33.44
2023-06-17T08:32:11.241Z,33.58
2023-06-17T08:34:38.145Z,33.28
2023-06-17T08:37:05.865Z,33.77
2023-06-17T08:39:33.105Z,34.36
2023-06-17T08:42:00.022Z,34.59
2023-06-17T08:44:28.649Z,34.69
2023-06-17T08:46:59.522Z,34.84
2023-06-17T08:49:28.040Z,35.35
2023-06-17T08:51:55.100Z,35.26
2023-06-17T08:54:22.600Z,35.27
2023-06-17T08:56:49.508Z,35.35
2023-06-17T08:59:16.255Z,35.56
2023-06-17T09:01:44.742Z,35.84
2023-06-17T09:04:12.912Z,35.95
2023-06-17T09:06:39.629Z,35.86
2023-06-17T09:09:06.584Z,35.81
2023-06-17T09:11:33.971Z,35.94
2023-06-17T09:14:02.526Z,36.28
2023-06-17T09:16:30.291Z,36.19
2023-06-17T09:19:04.896Z,36.23
2023-06-17T09:21:32.582Z,36.50
2023-06-17T09:24:02.005Z,36.77
2023-06-17T09:26:34.346Z,37.23
2023-06-17T09:29:06.253Z,37.70
2023-06-17T09:31:46.794Z,37.88
2023-06-17T09:34:14.862Z,38.72
2023-06-17T09:36:41.966Z,39.11
2023-06-17T09:39:13.200Z,39.32
2023-06-17T09:41:41.542Z,39.31
2023-06-17T09:44:09.069Z,39.73
2023-06-17T09:46:37.671Z,40.35
2023-06-17T09:49:10.395Z,40.59
2023-06-17T09:51:38.960Z,40.24
2023-06-17T09:54:07.310Z,40.49
2023-06-17T09:56:35.585Z,40.72
2023-06-17T09:59:08.514Z,41.39
2023-06-17T10:01:40.791Z,40.47
2023-06-17T10:04:08.600Z,38.42
2023-06-17T10:06:38.733Z,39.26
2023-06-17T10:09:08.339Z,38.76
2023-06-17T10:11:36.149Z,37.85
2023-06-17T10:14:07.259Z,39.26
2023-06-17T10:16:45.003Z,39.64
2023-06-17T10:19:16.187Z,38.93
2023-06-17T10:21:46.674Z,37.79
2023-06-17T10:24:15.127Z,38.88
2023-06-17T10:26:41.856Z,40.47
2023-06-17T10:29:11.342Z,41.69
2023-06-17T10:31:40.226Z,42.52
2023-06-17T10:34:17.591Z,42.44
2023-06-17T10:36:52.853Z,42.91
2023-06-17T10:39:19.865Z,43.66
2023-06-17T10:41:56.993Z,42.78
2023-06-17T10:44:36.354Z,42.61
2023-06-17T10:47:15.373Z,43.68
2023-06-17T10:49:47.147Z,44.50
2023-06-17T10:52:14.740Z,44.72
2023-06-17T10:54:50.450Z,45.02
2023-06-17T10:57:17.248Z,44.67
2023-06-17T10:59:44.055Z,45.76
2023-06-17T11:02:10.909Z,45.97
2023-06-17T11:04:42.313Z,46.15
2023-06-17T11:07:09.503Z,45.74
2023-06-17T11:09:38.220Z,46.13
2023-06-17T11:12:05.490Z,45.56
2023-06-17T11:14:33.692Z,43.68
2023-06-17T11:17:00.889Z,43.38
2023-06-17T11:19:27.858Z,44.30
2023-06-17T11:22:04.082Z,45.45
2023-06-17T11:24:31.899Z,43.86
2023-06-17T11:26:59.299Z,41.75
2023-06-17T11:29:29.517Z,42.13
2023-06-17T11:32:01.123Z,43.23
2023-06-17T11:34:33.890Z,43.61
2023-06-17T11:37:03.045Z,44.14
2023-06-17T11:39:31.955Z,45.05
2023-06-17T11:42:02.858Z,46.15
2023-06-17T11:44:31.535Z,47.01
2023-06-17T11:47:04.208Z,46.95
2023-06-17T11:49:31.324Z,46.92
2023-06-17T11:52:10.132Z,47.21
2023-06-17T11:54:49.471Z,47.65
2023-06-17T11:57:21.248Z,47.65
2023-06-17T11:59:48.523Z,47.77
2023-06-17T12:02:16.942Z,48.26
2023-06-17T12:04:45.040Z,48.25
2023-06-17T12:07:11.962Z,47.79
2023-06-17T12:09:39.465Z,46.73
2023-06-17T12:12:11.717Z,46.25
2023-06-17T12:14:38.583Z,45.31
2023-06-17T12:17:05.705Z,44.55
2023-06-17T12:19:32.461Z,43.73
2023-06-17T12:22:01.781Z,42.56
2023-06-17T12:24:28.722Z,41.73
2023-06-17T12:26:55.481Z,41.50
2023-06-17T12:29:25.995Z,41.15
2023-06-17T12:31:54.074Z,40.98
2023-06-17T12:34:20.874Z,40.43
2023-06-17T12:36:48.320Z,40.24
2023-06-17T12:39:15.213Z,39.80
2023-06-17T12:41:41.965Z,38.96
2023-06-17T12:44:08.892Z,38.70
2023-06-17T12:46:36.752Z,38.40
2023-06-17T12:49:03.770Z,38.10
2023-06-17T12:51:30.602Z,37.74
2023-06-17T12:53:57.335Z,38.22
2023-06-17T12:56:23.983Z,38.22
2023-06-17T12:58:50.816Z,38.38
2023-06-17T13:01:17.986Z,38.26
2023-06-17T13:03:45.107Z,38.21
2023-06-17T13:06:11.920Z,38.05
2023-06-17T13:08:38.608Z,37.93
2023-06-17T13:11:05.267Z,37.91
2023-06-17T13:13:32.636Z,38.00
2023-06-17T13:15:59.486Z,37.36
2023-06-17T13:18:26.439Z,37.46
2023-06-17T13:20:53.462Z,37.72
2023-06-17T13:23:20.534Z,37.07
2023-06-17T13:25:47.470Z,37.20
2023-06-17T13:28:14.207Z,37.23
2023-06-17T13:30:41.362Z,37.24
2023-06-17T13:33:08.617Z,37.24
2023-06-17T13:35:35.483Z,37.26
2023-06-17T13:38:03.996Z,37.45
2023-06-17T13:40:30.849Z,37.38
2023-06-17T13:42:57.673Z,37.20
2023-06-17T13:45:24.348Z,37.21
2023-06-17T13:47:51.262Z,36.49
2023-06-17T13:50:18.137Z,36.37
2023-06-17T13:52:44.895Z,36.09
2023-06-17T13:55:11.848Z,35.95
2023-06-17T13:57:38.555Z,35.80
2023-06-17T14:00:05.809Z,35.57
2023-06-17T14:02:32.658Z,35.65
2023-06-17T14:04:59.790Z,35.83
2023-06-17T14:07:26.578Z,36.01
2023-06-17T14:09:53.336Z,36.07
2023-06-17T14:12:21.440Z,36.26
2023-06-17T14:14:48.603Z,36.31
2023-06-17T14:17:15.515Z,36.19
2023-06-17T14:19:42.211Z,35.90
2023-06-17T14:22:10.069Z,35.91
2023-06-17T14:24:38.862Z,36.03
2023-06-17T14:27:36.232Z,36.21
2023-06-17T14:30:04.971Z,36.28
2023-06-17T14:32:32.503Z,36.24
2023-06-17T14:34:59.899Z,36.06
2023-06-17T14:37:26.725Z,35.80
2023-06-17T14:39:53.397Z,35.96
2023-06-17T14:42:20.070Z,36.03
2023-06-17T14:44:46.786Z,36.22
2023-06-17T14:47:13.564Z,36.02
2023-06-17T14:49:40.391Z,35.98
2023-06-17T14:52:07.377Z,36.06
2023-06-17T14:54:34.584Z,36.22
2023-06-17T14:57:01.444Z,36.22
2023-06-17T14:59:28.086Z,36.23
2023-06-17T15:01:54.734Z,36.05
2023-06-17T15:04:21.573Z,35.80
2023-06-17T15:06:48.268Z,35.75
2023-06-17T15:09:29.028Z,35.80
2023-06-17T15:11:57.198Z,35.77
2023-06-17T15:14:25.092Z,35.58
2023-06-17T15:16:52.318Z,35.60
2023-06-17T15:19:19.761Z,35.50
2023-06-17T15:21:47.517Z,35.61
2023-06-17T15:24:15.680Z,35.87
2023-06-17T15:26:44.103Z,36.03
2023-06-17T15:29:11.228Z,36.01
2023-06-17T15:31:38.746Z,35.60
2023-06-17T15:34:06.144Z,35.32
2023-06-17T15:36:32.930Z,35.45
2023-06-17T15:39:18.206Z,35.17
2023-06-17T15:41:49.308Z,34.71
2023-06-17T15:44:16.868Z,35.02
2023-06-17T15:46:43.943Z,35.02
2023-06-17T15:49:10.926Z,35.16
2023-06-17T15:51:38.113Z,35.10
2023-06-17T15:54:05.572Z,34.87
2023-06-17T15:56:34.391Z,34.85
2023-06-17T15:59:01.252Z,34.77
2023-06-17T16:01:28.347Z,34.80
2023-06-17T16:03:57.137Z,34.84
2023-06-17T16:06:24.022Z,34.94
2023-06-17T16:08:52.175Z,34.98
2023-06-17T16:11:19.591Z,34.95
2023-06-17T16:13:46.408Z,34.81
2023-06-17T16:16:13.161Z,34.69
2023-06-17T16:18:40.209Z,34.74
2023-06-17T16:21:06.928Z,34.64
2023-06-17T16:23:33.652Z,34.63
2023-06-17T16:26:00.571Z,34.81
2023-06-17T16:28:27.270Z,34.79
2023-06-17T16:30:54.099Z,34.72
2023-06-17T16:33:21.052Z,34.54
2023-06-17T16:35:47.872Z,34.39
2023-06-17T16:38:14.769Z,34.23
2023-06-17T16:40:41.527Z,34.10
2023-06-17T16:43:08.181Z,34.09
2023-06-17T16:45:35.353Z,33.96
2023-06-17T16:48:02.159Z,33.98
2023-06-17T16:50:28.958Z,33.95
2023-06-17T16:52:55.741Z,34.02
2023-06-17T16:55:22.469Z,33.93
2023-06-17T16:57:49.226Z,33.92
2023-06-17T17:00:17.908Z,33.89
2023-06-17T17:02:44.783Z,33.87
2023-06-17T17:05:12.976Z,33.89
2023-06-17T17:07:39.660Z,33.90
2023-06-17T17:10:06.636Z,33.90
2023-06-17T17:12:33.308Z,33.82
2023-06-17T17:15:00.029Z,33.81
2023-06-17T17:17:26.926Z,33.78
2023-06-17T17:19:54.720Z,33.75
2023-06-17T17:22:21.528Z,33.71
2023-06-17T17:24:48.319Z,33.63
2023-06-17T17:27:15.324Z,33.47
2023-06-17T17:29:42.479Z,33.41
2023-06-17T17:32:09.393Z,33.33
2023-06-17T17:34:36.088Z,33.32
2023-06-17T17:37:02.927Z,33.07
2023-06-17T17:39:29.664Z,33.10
2023-06-17T17:41:56.336Z,32.92
2023-06-17T17:44:23.066Z,32.85
2023-06-17T17:46:49.708Z,32.79
2023-06-17T17:49:16.726Z,32.73
2023-06-17T17:51:43.403Z,32.61
2023-06-17T17:54:10.065Z,32.55
2023-06-17T17:56:37.230Z,32.41
2023-06-17T17:59:06.904Z,32.25
2023-06-17T18:01:33.646Z,32.18
2023-06-17T18:04:00.298Z,32.15
2023-06-17T18:06:30.234Z,31.95
2023-06-17T18:08:57.212Z,31.95
2023-06-17T18:11:24.001Z,31.92
2023-06-17T18:13:53.836Z,31.79
2023-06-17T18:16:23.073Z,31.76
2023-06-17T18:18:50.646Z,31.62
2023-06-17T18:21:17.522Z,31.61
2023-06-17T18:23:45.144Z,31.51
2023-06-17T18:26:11.902Z,31.50
2023-06-17T18:28:39.152Z,31.45
2023-06-17T18:31:06.199Z,31.44
2023-06-17T18:33:33.043Z,31.50
2023-06-17T18:35:59.700Z,31.51
2023-06-17T18:38:26.352Z,31.49
2023-06-17T18:40:53.033Z,31.38
2023-06-17T18:43:22.906Z,31.36
2023-06-17T18:45:50.117Z,31.32
2023-06-17T18:48:16.881Z,31.34
2023-06-17T18:50:43.603Z,31.15
2023-06-17T18:53:10.979Z,30.93
2023-06-17T18:55:38.571Z,30.78
2023-06-17T18:58:05.317Z,30.70
2023-06-17T19:00:34.772Z,30.61
2023-06-17T19:03:05.126Z,30.55
2023-06-17T19:05:31.846Z,30.45
2023-06-17T19:07:58.574Z,30.43
2023-06-17T19:10:25.512Z,30.34
2023-06-17T19:12:52.245Z,30.17
2023-06-17T19:15:18.990Z,30.04
2023-06-17T19:17:57.733Z,29.88
2023-06-17T19:20:24.499Z,29.80
2023-06-17T19:22:51.406Z,29.73
2023-06-17T19:25:18.634Z,29.58
2023-06-17T19:27:45.580Z,29.36
2023-06-17T19:30:12.365Z,29.22
2023-06-17T19:32:40.503Z,29.09
2023-06-17T19:35:07.769Z,29.11
2023-06-17T19:37:34.512Z,29.09
2023-06-17T19:40:01.320Z,29.06
2023-06-17T19:42:27.975Z,28.98
2023-06-17T19:44:57.347Z,28.95
2023-06-17T19:47:25.712Z,28.83
2023-06-17T19:50:00.289Z,28.75
2023-06-17T19:52:27.086Z,28.57
2023-06-17T19:54:53.969Z,28.51
2023-06-17T19:57:20.795Z,28.46
2023-06-17T19:59:47.734Z,28.24
2023-06-17T20:02:15.235Z,28.18
2023-06-17T20:04:42.083Z,28.21
2023-06-17T20:07:08.752Z,28.12
2023-06-17T20:09:35.463Z,27.95
2023-06-17T20:12:02.166Z,27.98
2023-06-17T20:14:28.858Z,27.88
2023-06-17T20:16:55.645Z,27.83
2023-06-17T20:19:22.356Z,27.84
2023-06-17T20:21:49.062Z,27.78
2023-06-17T20:24:15.851Z,27.68
2023-06-17T20:26:42.601Z,27.53
2023-06-17T20:29:09.250Z,27.33
2023-06-17T20:31:35.945Z,27.20
2023-06-17T20:34:02.621Z,26.97
2023-06-17T20:36:29.484Z,26.96
2023-06-17T20:38:56.267Z,27.16
2023-06-17T20:41:22.963Z,27.17
2023-06-17T20:43:49.734Z,27.13
2023-06-17T20:46:16.466Z,27.07
2023-06-17T20:48:43.305Z,26.97
2023-06-17T20:51:11.160Z,26.92
2023-06-17T20:53:38.001Z,26.67
2023-06-17T20:56:04.719Z,26.66
2023-06-17T20:58:31.383Z,26.67
2023-06-17T21:00:58.157Z,26.57
2023-06-17T21:03:24.938Z,26.46
2023-06-17T21:05:51.743Z,26.38
2023-06-17T21:08:18.773Z,26.38
2023-06-17T21:10:45.601Z,26.38
2023-06-17T21:13:12.778Z,26.27
2023-06-17T21:15:39.478Z,26.16
2023-06-17T21:18:06.395Z,26.07
2023-06-17T21:20:33.099Z,26.05
2023-06-17T21:23:00.773Z,25.97
2023-06-17T21:25:27.471Z,25.85
2023-06-17T21:27:54.160Z,25.79
2023-06-17T21:30:21.218Z,25.76
2023-06-17T21:32:48.256Z,25.69
2023-06-17T21:35:15.325Z,25.69
2023-06-17T21:37:42.058Z,25.58
2023-06-17T21:40:09.942Z,25.55
2023-06-17T21:42:37.783Z,25.56
2023-06-17T21:45:04.862Z,25.53
2023-06-17T21:47:31.590Z,25.46
2023-06-17T21:49:59.422Z,25.43
2023-06-17T21:52:26.173Z,25.32
2023-06-17T21:54:52.919Z,25.21
2023-06-17T21:57:20.713Z,25.16
2023-06-17T21:59:47.408Z,25.08
2023-06-17T22:02:14.059Z,25.11
2023-06-17T22:04:40.754Z,25.01
2023-06-17T22:07:07.416Z,24.94
2023-06-17T22:09:34.118Z,24.92
2023-06-17T22:12:00.949Z,24.88
2023-06-17T22:14:27.686Z,24.81
2023-06-17T22:16:54.442Z,24.79
2023-06-17T22:19:21.130Z,24.78
2023-06-17T22:21:47.868Z,24.77
2023-06-17T22:24:14.699Z,24.78
2023-06-17T22:26:41.566Z,24.79
2023-06-17T22:29:08.564Z,24.64
2023-06-17T22:31:35.307Z,24.56
2023-06-17T22:34:01.971Z,24.51
2023-06-17T22:36:28.739Z,24.46
2023-06-17T22:38:55.406Z,24.41
2023-06-17T22:41:22.080Z,24.34
2023-06-17T22:43:49.712Z,24.10
2023-06-17T22:46:16.488Z,23.84
2023-06-17T22:48:43.186Z,23.45
2023-06-17T22:51:09.888Z,23.40
2023-06-17T22:53:36.629Z,23.61
2023-06-17T22:56:03.497Z,23.72
2023-06-17T22:58:30.562Z,23.70
2023-06-17T23:00:57.390Z,23.72
2023-06-17T23:03:24.215Z,23.69
2023-06-17T23:05:51.072Z,23.64
2023-06-17T23:08:17.736Z,23.66
2023-06-17T23:10:44.442Z,23.65
2023-06-17T23:13:11.289Z,23.58
2023-06-17T23:15:39.288Z,23.57
2023-06-17T23:18:06.357Z,23.54
2023-06-17T23:20:33.078Z,23.47
2023-06-17T23:22:59.782Z,23.38
2023-06-17T23:25:27.249Z,23.30
2023-06-17T23:27:54.524Z,23.22
2023-06-17T23:30:21.952Z,23.14
2023-06-17T23:32:48.755Z,23.14
2023-06-17T23:35:15.750Z,23.07
2023-06-17T23:37:42.485Z,23.05
2023-06-17T23:40:09.826Z,22.91
2023-06-17T23:42:37.090Z,22.91
2023-06-17T23:45:04.792Z,22.88
2023-06-17T23:47:32.003Z,22.81
2023-06-17T23:49:58.796Z,22.77
2023-06-17T23:52:25.624Z,22.82
2023-06-17T23:54:52.278Z,22.91
2023-06-17T23:57:19.315Z,22.93
2023-06-17T23:59:46.040Z,22.85
